Time;durP1;ratioP1;P1;durP2;ratioP2;P2;SDS_P1;SDS_P2;PMS_P1;PMS_P2;Temp;Humidity;BMP_temperature;BMP_pressure;BME280_temperature;BME280_humidity;BME280_pressure;Samples;Min_cycle;Max_cycle;Signal;HPM_P1;HPM_P2
2023/05/13 00:01:14;;;;;;;13.80;9.20;;;12.60;99.90;;;;;;5079740;28;20068;-57
2023/05/13 00:03:40;;;;;;;11.40;8.25;;;12.60;99.90;;;;;;5081654;28;20059;-58
2023/05/13 00:06:06;;;;;;;13.10;8.50;;;12.50;99.90;;;;;;5079783;28;20045;-58
2023/05/13 00:08:31;;;;;;;12.05;9.00;;;12.40;99.90;;;;;;5081736;28;20048;-57
2023/05/13 00:10:57;;;;;;;14.52;8.82;;;12.50;99.90;;;;;;5080021;28;20043;-57
2023/05/13 00:13:23;;;;;;;12.77;8.98;;;12.50;99.90;;;;;;5080747;28;20127;-58
2023/05/13 00:15:48;;;;;;;14.00;8.50;;;12.50;99.90;;;;;;5081021;28;20056;-57
2023/05/13 00:18:14;;;;;;;11.68;8.20;;;12.50;99.90;;;;;;5079400;28;20057;-57
2023/05/13 00:20:40;;;;;;;15.18;8.50;;;12.50;99.90;;;;;;5081564;28;20052;-57
2023/05/13 00:23:06;;;;;;;13.35;8.40;;;12.40;99.90;;;;;;5079182;28;20417;-58
2023/05/13 00:25:32;;;;;;;12.18;9.20;;;12.40;99.90;;;;;;5081628;28;20063;-58
2023/05/13 00:27:58;;;;;;;12.52;9.00;;;12.40;99.90;;;;;;5079263;28;20044;-57
2023/05/13 00:30:24;;;;;;;13.32;9.80;;;12.50;99.90;;;;;;5080660;28;20124;-57
2023/05/13 00:32:50;;;;;;;12.95;8.80;;;12.50;99.90;;;;;;5080580;28;20049;-58
2023/05/13 00:35:16;;;;;;;14.75;10.07;;;12.40;99.90;;;;;;5079656;28;20044;-58
2023/05/13 00:37:42;;;;;;;15.18;9.45;;;12.40;99.90;;;;;;5080964;28;20044;-58
2023/05/13 00:40:18;;;;;;;13.38;9.35;;;12.40;99.90;;;;;;5079324;28;20068;-58
2023/05/13 00:42:43;;;;;;;12.75;9.00;;;12.40;99.90;;;;;;5080931;28;20041;-58
2023/05/13 00:45:09;;;;;;;16.10;9.60;;;12.40;99.90;;;;;;5079184;28;20047;-57
2023/05/13 00:47:35;;;;;;;15.68;9.65;;;12.20;99.90;;;;;;5062238;28;21076;-58
2023/05/13 00:50:02;;;;;;;14.05;9.82;;;12.30;99.90;;;;;;5080304;28;20492;-58
2023/05/13 00:52:28;;;;;;;17.83;11.32;;;12.20;99.90;;;;;;5079060;28;20051;-57
2023/05/13 00:54:53;;;;;;;14.90;10.15;;;12.20;99.90;;;;;;5080659;28;20033;-58
2023/05/13 00:57:20;;;;;;;15.18;10.75;;;12.10;99.90;;;;;;5078605;28;20048;-57
2023/05/13 00:59:45;;;;;;;14.57;10.77;;;12.10;99.90;;;;;;5080677;28;20571;-58
2023/05/13 01:02:34;;;;;;;18.10;11.68;;;12.10;99.90;;;;;;5078837;28;20054;-57
2023/05/13 01:05:24;;;;;;;15.05;10.63;;;12.10;99.90;;;;;;5079098;28;20044;-57
2023/05/13 01:08:01;;;;;;;17.30;11.40;;;12.10;99.90;;;;;;5080087;28;20103;-57
2023/05/13 01:10:30;;;;;;;15.77;11.63;;;12.10;99.90;;;;;;5078489;28;20048;-57
2023/05/13 01:12:59;;;;;;;18.33;12.20;;;12.10;99.90;;;;;;5080508;28;20504;-58
2023/05/13 01:15:26;;;;;;;14.55;10.20;;;12.10;99.90;;;;;;5079453;28;20033;-58
2023/05/13 01:18:01;;;;;;;18.55;12.32;;;12.20;99.90;;;;;;5078761;28;20048;-57
2023/05/13 01:20:29;;;;;;;16.60;11.85;;;12.10;99.90;;;;;;5079801;28;20048;-57
2023/05/13 01:22:56;;;;;;;15.60;11.52;;;12.10;99.90;;;;;;5077897;28;20056;-55
2023/05/13 01:25:22;;;;;;;16.38;11.00;;;12.00;99.90;;;;;;5080248;28;20549;-57
2023/05/13 01:27:49;;;;;;;14.77;10.98;;;12.00;99.90;;;;;;5078254;28;20052;-58
2023/05/13 01:30:15;;;;;;;14.27;10.55;;;11.90;99.90;;;;;;5079651;28;20080;-57
2023/05/13 01:32:42;;;;;;;16.85;11.88;;;12.00;99.90;;;;;;5078988;28;20052;-57
2023/05/13 01:35:10;;;;;;;15.32;10.18;;;12.00;99.90;;;;;;5078806;28;20404;-57
2023/05/13 01:37:37;;;;;;;17.05;11.50;;;12.00;99.90;;;;;;5079791;28;20067;-57
2023/05/13 01:40:06;;;;;;;13.77;10.27;;;12.00;99.90;;;;;;5077553;28;20048;-57
2023/05/13 01:42:33;;;;;;;17.67;12.00;;;11.90;99.90;;;;;;5080101;28;20045;-58
2023/05/13 01:44:59;;;;;;;17.13;10.75;;;11.90;99.90;;;;;;5077695;28;20045;-57
2023/05/13 01:47:26;;;;;;;16.45;9.63;;;11.90;99.90;;;;;;5079333;28;20417;-58
2023/05/13 01:49:51;;;;;;;17.17;10.38;;;12.00;99.90;;;;;;5078799;28;20041;-59
2023/05/13 01:52:17;;;;;;;15.75;10.05;;;12.00;99.90;;;;;;5078288;28;20059;-58
2023/05/13 01:54:43;;;;;;;16.52;9.93;;;11.90;99.90;;;;;;5079481;28;20051;-58
2023/05/13 01:57:09;;;;;;;13.05;9.60;;;11.90;99.90;;;;;;5077515;28;20040;-57
2023/05/13 01:59:34;;;;;;;13.68;9.88;;;11.80;99.90;;;;;;5079391;28;20422;-57
2023/05/13 02:02:00;;;;;;;14.45;9.35;;;11.90;99.90;;;;;;5077659;28;20461;-57
2023/05/13 02:04:26;;;;;;;14.43;9.70;;;11.90;99.90;;;;;;5079118;28;20040;-58
2023/05/13 02:06:52;;;;;;;14.13;8.93;;;11.90;99.90;;;;;;5078346;28;20080;-57
2023/05/13 02:09:17;;;;;;;14.25;9.57;;;11.90;99.90;;;;;;5077977;28;20040;-56
2023/05/13 02:11:45;;;;;;;12.77;8.90;;;11.80;99.90;;;;;;5079053;28;20051;-57
2023/05/13 02:14:11;;;;;;;17.15;9.98;;;11.90;99.90;;;;;;5076958;28;20881;-58
2023/05/13 02:16:37;;;;;;;14.32;10.35;;;11.70;99.90;;;;;;5079541;28;20075;-58
2023/05/13 02:19:02;;;;;;;14.18;9.50;;;11.80;99.90;;;;;;5076264;28;20048;-58
2023/05/13 02:21:28;;;;;;;15.30;10.52;;;11.70;99.90;;;;;;5079267;28;20095;-57
2023/05/13 02:23:54;;;;;;;13.00;10.23;;;11.70;99.90;;;;;;5059687;28;20048;-58
2023/05/13 02:26:20;;;;;;;15.50;11.18;;;11.70;99.90;;;;;;5077955;28;20062;-57
2023/05/13 02:28:45;;;;;;;15.65;10.82;;;11.70;99.90;;;;;;5078688;28;20096;-57
2023/05/13 02:31:11;;;;;;;16.70;11.10;;;11.60;99.90;;;;;;5058744;28;20044;-57
2023/05/13 02:33:36;;;;;;;17.73;11.15;;;11.60;99.90;;;;;;5078764;28;20233;-58
2023/05/13 02:36:02;;;;;;;17.60;10.38;;;11.70;99.90;;;;;;5076924;28;20084;-57
2023/05/13 02:38:28;;;;;;;15.38;10.77;;;11.60;99.90;;;;;;5078828;28;20041;-56
2023/05/13 02:40:53;;;;;;;15.57;11.10;;;11.60;99.90;;;;;;5077110;28;20040;-58
2023/05/13 02:43:20;;;;;;;16.08;11.52;;;11.70;99.90;;;;;;5077946;28;20040;-58
2023/05/13 02:45:46;;;;;;;14.20;10.57;;;11.50;99.90;;;;;;5078216;28;20079;-58
2023/05/13 02:48:12;;;;;;;17.23;10.85;;;11.40;99.90;;;;;;5076959;28;20060;-57
2023/05/13 02:50:39;;;;;;;20.75;11.18;;;11.50;99.90;;;;;;5078740;28;20117;-57
2023/05/13 02:53:05;;;;;;;12.38;9.80;;;11.40;99.90;;;;;;5076400;28;20060;-58
2023/05/13 02:55:30;;;;;;;17.45;10.93;;;11.50;99.90;;;;;;5078866;28;20359;-57
2023/05/13 02:57:56;;;;;;;15.38;10.48;;;11.50;99.90;;;;;;5076576;28;20121;-58
2023/05/13 03:00:22;;;;;;;15.65;10.63;;;11.50;99.90;;;;;;5077958;28;20045;-58
2023/05/13 03:02:47;;;;;;;16.38;10.18;;;11.50;99.90;;;;;;5059819;28;20098;-57
2023/05/13 03:05:13;;;;;;;15.10;10.48;;;11.50;99.90;;;;;;5077009;28;20128;-58
2023/05/13 03:07:39;;;;;;;14.35;9.38;;;11.50;99.90;;;;;;5078511;28;20044;-58
2023/05/13 03:10:05;;;;;;;16.33;10.13;;;11.50;99.90;;;;;;5076361;28;20036;-57
2023/05/13 03:12:31;;;;;;;15.00;9.75;;;11.40;99.90;;;;;;5078360;28;20075;-57
2023/05/13 03:14:56;;;;;;;14.15;9.20;;;11.50;99.90;;;;;;5076759;28;20041;-57
2023/05/13 03:17:22;;;;;;;14.27;9.30;;;11.40;99.90;;;;;;5078230;28;20447;-58
2023/05/13 03:19:48;;;;;;;13.70;9.50;;;11.50;99.90;;;;;;5077614;28;20058;-57
2023/05/13 03:22:13;;;;;;;14.98;10.02;;;11.50;99.90;;;;;;5077075;28;20076;-57
2023/05/13 03:24:40;;;;;;;14.55;9.50;;;11.60;99.90;;;;;;5043450;28;20123;-57
2023/05/13 03:27:06;;;;;;;13.73;9.77;;;11.30;99.90;;;;;;5058069;28;20072;-58
2023/05/13 03:29:31;;;;;;;13.18;10.18;;;11.50;99.90;;;;;;5078561;28;20078;-57
2023/05/13 03:31:57;;;;;;;13.38;9.75;;;11.50;99.90;;;;;;5062322;28;20051;-57
2023/05/13 03:34:23;;;;;;;13.65;9.60;;;11.40;99.90;;;;;;5082006;28;20037;-58
2023/05/13 03:36:49;;;;;;;14.32;9.07;;;11.40;99.90;;;;;;5081169;28;20033;-57
2023/05/13 03:39:15;;;;;;;15.38;8.95;;;11.40;99.90;;;;;;5081001;28;20041;-58
2023/05/13 03:41:41;;;;;;;17.33;10.05;;;11.40;99.90;;;;;;5081812;28;20045;-58
2023/05/13 03:44:06;;;;;;;18.77;10.57;;;11.30;99.90;;;;;;5080120;28;20055;-58
2023/05/13 03:46:32;;;;;;;16.45;10.30;;;11.30;99.90;;;;;;5082247;28;20049;-58
2023/05/13 03:48:58;;;;;;;15.50;9.45;;;11.30;99.90;;;;;;5079930;28;20094;-57
2023/05/13 03:51:24;;;;;;;17.08;9.38;;;11.30;99.90;;;;;;5082153;28;20036;-58
2023/05/13 03:53:50;;;;;;;15.95;9.82;;;11.30;99.90;;;;;;5080503;28;20511;-58
2023/05/13 03:56:15;;;;;;;14.85;10.07;;;11.20;99.90;;;;;;5080969;28;20036;-58
2023/05/13 03:58:41;;;;;;;17.60;10.07;;;11.30;99.90;;;;;;5081431;28;20040;-58
2023/05/13 04:01:07;;;;;;;15.52;9.68;;;11.30;99.90;;;;;;5079697;28;20033;-58
2023/05/13 04:03:33;;;;;;;15.45;10.30;;;11.30;99.90;;;;;;5081405;28;20052;-58
2023/05/13 04:05:59;;;;;;;16.02;10.38;;;11.40;99.90;;;;;;5079730;28;20048;-57
2023/05/13 04:08:25;;;;;;;14.68;10.32;;;11.40;99.90;;;;;;5081798;28;20045;-57
2023/05/13 04:10:51;;;;;;;15.75;9.45;;;11.40;99.90;;;;;;5080006;28;20052;-58
2023/05/13 04:13:16;;;;;;;17.58;11.30;;;11.30;99.90;;;;;;5080953;28;20127;-57
2023/05/13 04:15:42;;;;;;;19.05;11.73;;;11.40;99.90;;;;;;5081041;28;20051;-57
2023/05/13 04:18:08;;;;;;;13.55;9.20;;;11.40;99.90;;;;;;5079591;28;20044;-57
2023/05/13 04:20:37;;;;;;;17.02;9.60;;;11.40;99.90;;;;;;5081070;28;20072;-57
2023/05/13 04:23:02;;;;;;;18.10;9.43;;;11.30;99.90;;;;;;5079199;28;20076;-57
2023/05/13 04:25:28;;;;;;;14.55;9.15;;;11.40;99.90;;;;;;5081378;28;20620;-57
2023/05/13 04:27:54;;;;;;;14.55;9.02;;;11.40;99.90;;;;;;5079604;28;20471;-57
2023/05/13 04:30:20;;;;;;;13.80;9.52;;;11.40;99.90;;;;;;5080632;28;20041;-57
2023/05/13 04:32:45;;;;;;;16.23;9.88;;;11.40;99.90;;;;;;5080666;28;20043;-57
2023/05/13 04:35:11;;;;;;;15.32;9.45;;;11.50;99.90;;;;;;5079750;28;20080;-58
2023/05/13 04:37:37;;;;;;;16.10;9.88;;;11.60;99.90;;;;;;5081015;28;20052;-57
2023/05/13 04:40:03;;;;;;;13.07;9.13;;;11.60;99.90;;;;;;5078807;28;20045;-58
2023/05/13 04:42:29;;;;;;;13.25;9.10;;;11.60;99.90;;;;;;5080459;28;20036;-58
2023/05/13 04:44:54;;;;;;;13.73;9.25;;;11.70;99.90;;;;;;5079180;28;20075;-57
2023/05/13 04:47:21;;;;;;;16.73;9.13;;;11.80;99.90;;;;;;5080671;28;20040;-56
2023/05/13 04:49:46;;;;;;;13.65;8.98;;;11.80;99.90;;;;;;5080056;28;20040;-58
2023/05/13 04:52:12;;;;;;;15.10;9.15;;;11.80;99.90;;;;;;5079525;28;20045;-57
2023/05/13 04:54:38;;;;;;;17.90;9.75;;;12.00;99.90;;;;;;5080317;28;20048;-58
2023/05/13 04:57:04;;;;;;;16.58;9.38;;;12.00;99.90;;;;;;5078727;28;20029;-58
2023/05/13 04:59:30;;;;;;;14.02;8.70;;;12.10;99.90;;;;;;5080624;28;20048;-58
2023/05/13 05:01:56;;;;;;;15.68;9.23;;;12.10;99.90;;;;;;5078774;28;20041;-57
2023/05/13 05:04:23;;;;;;;13.85;9.10;;;12.20;99.90;;;;;;5080177;28;20086;-58
2023/05/13 05:06:49;;;;;;;14.57;8.98;;;12.30;99.90;;;;;;5079683;28;20040;-57
2023/05/13 05:09:14;;;;;;;13.10;9.13;;;12.30;99.90;;;;;;5079062;28;20100;-58
2023/05/13 05:11:40;;;;;;;12.35;8.55;;;12.40;99.90;;;;;;5080295;28;20079;-58
2023/05/13 05:14:06;;;;;;;16.80;8.73;;;12.50;99.90;;;;;;5060513;28;20044;-57
2023/05/13 05:16:31;;;;;;;15.07;8.40;;;12.50;99.90;;;;;;5080565;28;20056;-58
2023/05/13 05:18:58;;;;;;;14.85;8.80;;;12.60;99.90;;;;;;5078191;28;20060;-58
2023/05/13 05:21:23;;;;;;;13.73;9.07;;;12.70;99.90;;;;;;5080251;28;20049;-58
2023/05/13 05:23:49;;;;;;;16.25;9.02;;;12.70;99.90;;;;;;5078795;28;20047;-58
2023/05/13 05:26:15;;;;;;;15.73;9.40;;;12.90;99.90;;;;;;5060933;28;20045;-57
2023/05/13 05:28:41;;;;;;;12.52;8.70;;;13.00;99.90;;;;;;5079910;28;20067;-58
2023/05/13 05:31:08;;;;;;;12.38;8.65;;;13.00;99.90;;;;;;5078045;28;20055;-58
2023/05/13 05:33:35;;;;;;;12.73;8.55;;;13.10;99.90;;;;;;5080016;28;20508;-58
2023/05/13 05:36:01;;;;;;;15.02;8.43;;;13.10;99.90;;;;;;5077976;28;20044;-58
2023/05/13 05:38:26;;;;;;;14.95;10.30;;;13.20;99.90;;;;;;5079856;28;20472;-58
2023/05/13 05:40:52;;;;;;;13.27;8.60;;;13.20;99.90;;;;;;5078554;28;20038;-58
2023/05/13 05:43:18;;;;;;;15.10;8.90;;;13.30;99.90;;;;;;5078855;28;20040;-58
2023/05/13 05:45:45;;;;;;;14.95;9.27;;;13.40;99.90;;;;;;5079393;28;20037;-58
2023/05/13 05:48:10;;;;;;;15.00;8.57;;;13.40;99.90;;;;;;5077872;28;20104;-59
2023/05/13 05:50:36;;;;;;;16.67;9.20;;;13.50;99.90;;;;;;5079457;28;20282;-57
2023/05/13 05:53:03;;;;;;;13.70;8.13;;;13.60;99.90;;;;;;5077168;28;20052;-58
2023/05/13 05:55:30;;;;;;;13.98;8.15;;;13.70;99.90;;;;;;5079610;28;20107;-58
2023/05/13 05:57:56;;;;;;;12.90;9.45;;;13.80;99.90;;;;;;5077631;28;20508;-58
2023/05/13 06:00:23;;;;;;;12.45;8.45;;;13.80;99.90;;;;;;5078246;28;20040;-58
2023/05/13 06:02:49;;;;;;;14.25;8.43;;;13.80;99.90;;;;;;5078733;28;20072;-58
2023/05/13 06:05:14;;;;;;;16.08;9.18;;;13.80;99.90;;;;;;5077473;28;20053;-58
2023/05/13 06:07:40;;;;;;;14.73;9.23;;;13.90;99.90;;;;;;5078966;28;20040;-58
2023/05/13 06:10:07;;;;;;;15.75;9.30;;;14.00;99.90;;;;;;5077287;28;20110;-58
2023/05/13 06:12:32;;;;;;;16.77;8.88;;;14.10;99.90;;;;;;5079249;28;20040;-57
2023/05/13 06:14:59;;;;;;;11.35;8.52;;;14.20;99.90;;;;;;5077311;28;20056;-58
2023/05/13 06:17:25;;;;;;;14.25;8.48;;;14.20;99.90;;;;;;5078573;28;20063;-58
2023/05/13 06:19:50;;;;;;;15.45;8.93;;;14.30;99.90;;;;;;5078110;28;20064;-57
2023/05/13 06:22:16;;;;;;;12.38;8.80;;;14.30;99.90;;;;;;5077175;28;20041;-58
2023/05/13 06:24:43;;;;;;;19.00;9.43;;;14.30;99.90;;;;;;5060528;28;20491;-58
2023/05/13 06:27:12;;;;;;;11.82;8.60;;;14.40;99.90;;;;;;5077022;28;20044;-58
2023/05/13 06:29:38;;;;;;;12.15;8.13;;;14.60;99.90;;;;;;5079119;28;20558;-57
2023/05/13 06:32:04;;;;;;;15.30;8.63;;;14.70;99.90;;;;;;5076992;28;20044;-57
2023/05/13 06:34:30;;;;;;;13.48;9.60;;;14.80;99.90;;;;;;5078200;28;20044;-58
2023/05/13 06:36:56;;;;;;;14.15;8.70;;;14.80;99.90;;;;;;5078378;28;20102;-56
2023/05/13 06:39:22;;;;;;;14.73;8.70;;;14.80;99.90;;;;;;5059438;28;20462;-57
2023/05/13 06:41:47;;;;;;;12.82;8.90;;;14.90;99.90;;;;;;5078966;28;20041;-57
2023/05/13 06:44:13;;;;;;;13.90;9.20;;;14.90;99.90;;;;;;5076657;28;20060;-57
2023/05/13 06:46:39;;;;;;;13.15;8.90;;;15.00;99.90;;;;;;5079024;28;20043;-57
2023/05/13 06:49:05;;;;;;;13.27;8.70;;;15.10;99.90;;;;;;5076807;28;20072;-57
2023/05/13 06:51:32;;;;;;;16.33;8.75;;;15.10;99.90;;;;;;5078102;28;20759;-57
2023/05/13 06:53:58;;;;;;;15.63;8.40;;;15.00;99.90;;;;;;5077684;28;20438;-57
2023/05/13 06:56:24;;;;;;;13.05;8.50;;;15.20;99.90;;;;;;5077145;28;20056;-58
2023/05/13 06:58:51;;;;;;;13.55;8.30;;;15.10;99.90;;;;;;5078352;28;20394;-57
2023/05/13 07:01:18;;;;;;;11.20;7.85;;;15.30;99.90;;;;;;5058466;28;20453;-58
2023/05/13 07:03:44;;;;;;;11.52;7.68;;;15.30;99.90;;;;;;5078447;28;20064;-57
2023/05/13 07:06:10;;;;;;;12.05;7.63;;;15.50;99.90;;;;;;5076113;28;20056;-56
2023/05/13 07:08:36;;;;;;;12.52;7.97;;;15.50;99.90;;;;;;5060589;28;20045;-58
2023/05/13 07:11:02;;;;;;;13.45;8.07;;;15.60;99.90;;;;;;5077561;28;20135;-58
2023/05/13 07:13:29;;;;;;;13.52;8.65;;;15.70;99.90;;;;;;5077180;28;20040;-57
2023/05/13 07:15:56;;;;;;;11.07;7.20;;;15.80;99.90;;;;;;5078052;28;20044;-58
2023/05/13 07:18:22;;;;;;;12.13;7.47;;;15.90;99.90;;;;;;5076233;28;20037;-58
2023/05/13 07:20:48;;;;;;;15.20;7.65;;;16.00;99.90;;;;;;5078372;28;20060;-58
2023/05/13 07:23:13;;;;;;;10.70;7.53;;;16.00;99.90;;;;;;5076381;28;20056;-57
2023/05/13 07:25:39;;;;;;;9.65;7.40;;;16.10;99.90;;;;;;5078376;28;20402;-58
2023/05/13 07:28:05;;;;;;;10.95;6.93;;;16.20;99.90;;;;;;5077115;28;20048;-58
2023/05/13 07:30:30;;;;;;;12.50;7.68;;;16.30;99.90;;;;;;5077077;28;20056;-55
2023/05/13 07:32:56;;;;;;;10.98;6.47;;;16.40;99.90;;;;;;5078055;28;20086;-58
2023/05/13 07:35:22;;;;;;;10.05;6.82;;;16.40;99.90;;;;;;5076205;28;20040;-58
2023/05/13 07:37:47;;;;;;;12.40;7.85;;;16.60;99.90;;;;;;5078371;28;20066;-57
2023/05/13 07:40:13;;;;;;;10.77;7.47;;;16.60;99.90;;;;;;5076134;28;20067;-57
2023/05/13 07:42:39;;;;;;;10.93;6.90;;;16.70;99.90;;;;;;5078373;28;20040;-57
2023/05/13 07:45:08;;;;;;;11.10;6.85;;;16.80;99.90;;;;;;5058295;28;20044;-57
2023/05/13 07:47:34;;;;;;;10.38;6.72;;;16.90;99.90;;;;;;5076941;28;20050;-58
2023/05/13 07:50:00;;;;;;;10.88;6.82;;;16.90;99.90;;;;;;5059622;28;20123;-58
2023/05/13 07:52:26;;;;;;;11.63;6.85;;;17.10;99.90;;;;;;5075972;28;20460;-58
2023/05/13 07:54:53;;;;;;;10.43;6.72;;;17.00;99.90;;;;;;5077986;28;20132;-58
2023/05/13 07:57:18;;;;;;;12.75;7.22;;;17.10;99.90;;;;;;5075561;28;20056;-58
2023/05/13 07:59:44;;;;;;;14.13;7.47;;;17.20;99.90;;;;;;5078161;28;20067;-59
2023/05/13 08:02:10;;;;;;;12.45;6.85;;;17.20;99.90;;;;;;5076410;28;20070;-59
2023/05/13 08:04:36;;;;;;;13.68;6.80;;;17.20;99.90;;;;;;5058784;28;20052;-59
2023/05/13 08:07:02;;;;;;;12.82;7.43;;;17.40;99.90;;;;;;5077484;28;20044;-60
2023/05/13 08:09:28;;;;;;;14.10;6.57;;;17.50;99.90;;;;;;5076328;28;20444;-60
2023/05/13 08:11:53;;;;;;;12.77;6.30;;;17.50;99.90;;;;;;5077861;28;20071;-59
2023/05/13 08:14:19;;;;;;;10.63;6.63;;;17.50;99.90;;;;;;5075816;28;20075;-58
2023/05/13 08:16:45;;;;;;;10.20;5.97;;;17.50;99.90;;;;;;5078480;28;20049;-58
2023/05/13 08:19:13;;;;;;;11.10;5.65;;;17.50;99.90;;;;;;5079486;28;20511;-58
2023/05/13 08:21:38;;;;;;;9.90;5.47;;;17.60;99.90;;;;;;5080999;28;20059;-58
2023/05/13 08:24:05;;;;;;;9.10;5.43;;;17.50;99.90;;;;;;5080796;28;20044;-58
2023/05/13 08:26:31;;;;;;;10.43;5.70;;;17.50;99.90;;;;;;5079818;28;20036;-58
2023/05/13 08:28:57;;;;;;;9.65;5.18;;;17.50;99.90;;;;;;5062924;28;20036;-58
2023/05/13 08:31:26;;;;;;;12.45;5.55;;;17.60;99.90;;;;;;5078997;28;20032;-58
2023/05/13 08:33:52;;;;;;;11.07;6.18;;;17.70;99.90;;;;;;5081299;28;20040;-57
2023/05/13 08:36:18;;;;;;;11.00;5.30;;;17.80;99.90;;;;;;5079314;28;20052;-58
2023/05/13 08:38:44;;;;;;;11.40;4.88;;;17.80;99.90;;;;;;5080696;28;20056;-58
2023/05/13 08:41:14;;;;;;;11.38;5.53;;;17.90;99.90;;;;;;5080483;28;20044;-58
2023/05/13 08:43:43;;;;;;;10.68;5.50;;;18.00;99.90;;;;;;5079094;28;20066;-58
2023/05/13 08:46:10;;;;;;;9.85;5.40;;;18.00;99.90;;;;;;5062876;28;20059;-57
2023/05/13 08:48:39;;;;;;;10.07;5.68;;;18.10;99.90;;;;;;5079060;28;20059;-57
2023/05/13 08:51:05;;;;;;;10.52;6.50;;;18.10;99.90;;;;;;5080923;28;20567;-58
2023/05/13 08:53:32;;;;;;;9.32;5.45;;;18.20;99.90;;;;;;5079104;28;20064;-58
2023/05/13 08:55:59;;;;;;;9.98;4.97;;;18.20;99.90;;;;;;5080286;28;20518;-57
2023/05/13 08:58:26;;;;;;;9.50;5.22;;;18.30;99.90;;;;;;5079951;28;20051;-58
2023/05/13 09:00:55;;;;;;;10.23;5.20;;;18.30;99.90;;;;;;5078936;28;20052;-58
2023/05/13 09:03:21;;;;;;;9.15;5.05;;;18.40;99.90;;;;;;5080435;28;20388;-58
2023/05/13 09:05:47;;;;;;;8.60;5.70;;;18.30;99.90;;;;;;5078253;28;20044;-57
2023/05/13 09:08:14;;;;;;;9.93;5.40;;;18.40;99.90;;;;;;5080729;28;20059;-58
2023/05/13 09:10:39;;;;;;;10.82;5.53;;;18.50;99.90;;;;;;5079156;28;20044;-58
2023/05/13 09:13:06;;;;;;;10.05;5.20;;;18.50;99.90;;;;;;5079975;28;20094;-58
2023/05/13 09:15:32;;;;;;;9.02;5.72;;;18.40;99.90;;;;;;5079763;28;20055;-58
2023/05/13 09:18:05;;;;;;;9.63;5.78;;;18.50;99.90;;;;;;5061021;28;20036;-58
2023/05/13 09:20:32;;;;;;;10.63;6.07;;;18.50;99.90;;;;;;5061864;28;20048;-58
2023/05/13 09:23:03;;;;;;;10.07;5.88;;;18.60;99.90;;;;;;5078188;28;20052;-58
2023/05/13 09:25:29;;;;;;;10.53;6.27;;;18.80;99.90;;;;;;5079972;28;20055;-58
2023/05/13 09:27:57;;;;;;;10.95;5.78;;;18.80;99.90;;;;;;5078462;28;20040;-56
2023/05/13 09:30:28;;;;;;;9.13;5.50;;;18.90;99.90;;;;;;5078860;28;20088;-58
2023/05/13 09:33:14;;;;;;;10.32;5.00;;;19.00;99.90;;;;;;5079819;28;20040;-58
2023/05/13 09:35:51;;;;;;;9.10;5.55;;;19.00;99.90;;;;;;5077710;28;20045;-59
2023/05/13 09:38:24;;;;;;;11.45;5.82;;;19.10;99.90;;;;;;5080016;28;20052;-59
2023/05/13 09:40:50;;;;;;;11.32;5.72;;;19.10;99.90;;;;;;5078744;28;20063;-59
2023/05/13 09:43:20;;;;;;;10.25;5.72;;;19.10;99.90;;;;;;5078600;28;20103;-58
2023/05/13 09:45:46;;;;;;;9.88;5.88;;;19.10;99.90;;;;;;5079426;28;20051;-59
2023/05/13 09:48:13;;;;;;;12.35;6.00;;;19.00;99.90;;;;;;5077927;28;20546;-59
2023/05/13 09:50:49;;;;;;;10.90;6.30;;;19.10;99.90;;;;;;5079555;28;20048;-59
2023/05/13 09:53:15;;;;;;;9.70;5.63;;;19.10;99.90;;;;;;5077520;28;20083;-58
2023/05/13 09:55:49;;;;;;;9.75;6.13;;;19.10;99.90;;;;;;5079268;28;20053;-58
2023/05/13 09:58:16;;;;;;;8.48;5.50;;;19.30;99.90;;;;;;5078736;28;20044;-59
2023/05/13 10:00:42;;;;;;;12.10;5.60;;;19.20;99.90;;;;;;5077846;28;20043;-58
2023/05/13 10:03:11;;;;;;;9.70;6.07;;;19.30;99.90;;;;;;5079304;28;20045;-58
2023/05/13 10:05:38;;;;;;;9.02;5.47;;;19.30;99.90;;;;;;5077161;28;20534;-58
2023/05/13 10:08:07;;;;;;;12.05;6.28;;;19.40;99.90;;;;;;5079595;28;20060;-58
2023/05/13 10:10:34;;;;;;;12.65;5.95;;;19.40;99.90;;;;;;5077564;28;20108;-58
2023/05/13 10:13:09;;;;;;;10.35;6.20;;;19.40;99.90;;;;;;5079024;28;20053;-58
2023/05/13 10:15:35;;;;;;;10.40;6.00;;;19.40;99.90;;;;;;5078422;28;20108;-57
2023/05/13 10:18:01;;;;;;;11.32;5.90;;;19.40;99.90;;;;;;5077480;28;20033;-58
2023/05/13 10:20:27;;;;;;;11.35;6.97;;;19.50;99.90;;;;;;5078928;28;20075;-58
2023/05/13 10:22:54;;;;;;;12.27;6.78;;;19.60;99.90;;;;;;5077087;28;20052;-58
2023/05/13 10:25:21;;;;;;;12.85;6.45;;;19.40;99.90;;;;;;5079218;28;20071;-58
2023/05/13 10:27:47;;;;;;;11.57;6.78;;;19.40;99.90;;;;;;5077379;28;20076;-58
2023/05/13 10:30:13;;;;;;;11.40;7.30;;;19.40;99.90;;;;;;5078097;28;20056;-57
2023/05/13 10:32:39;;;;;;;9.77;6.40;;;19.40;99.90;;;;;;5078404;28;20052;-58
2023/05/13 10:35:14;;;;;;;10.98;6.90;;;19.60;99.90;;;;;;5077285;28;20661;-58
2023/05/13 10:38:01;;;;;;;13.50;6.97;;;19.70;99.90;;;;;;5078900;28;20454;-58
2023/05/13 10:40:49;;;;;;;16.67;7.13;;;19.80;99.90;;;;;;5076265;28;20119;-56
2023/05/13 10:43:18;;;;;;;10.48;6.93;;;19.60;99.90;;;;;;5077761;28;20040;-58
2023/05/13 10:45:48;;;;;;;12.40;6.57;;;19.60;99.90;;;;;;5078339;28;20037;-58
2023/05/13 10:48:16;;;;;;;14.50;8.23;;;19.80;99.90;;;;;;5076844;28;20036;-58
2023/05/13 10:50:55;;;;;;;12.52;6.28;;;20.00;99.90;;;;;;5060787;28;20049;-58
2023/05/13 10:53:31;;;;;;;10.68;6.13;;;19.90;99.90;;;;;;5076853;28;20055;-58
2023/05/13 10:55:58;;;;;;;11.27;6.95;;;20.00;99.90;;;;;;5077890;28;20106;-58
2023/05/13 10:58:33;;;;;;;10.75;6.10;;;20.00;99.90;;;;;;5078166;28;20036;-58
2023/05/13 11:01:15;;;;;;;9.63;6.65;;;20.00;99.90;;;;;;5076459;28;20044;-58
2023/05/13 11:03:41;;;;;;;;;;;20.10;99.90;;;;;;5079105;28;20045;-58
2023/05/13 11:06:17;;;;;;;10.48;6.70;;;20.00;99.90;;;;;;5076617;28;20000;-58
2023/05/13 11:08:45;;;;;;;10.77;6.57;;;19.90;99.90;;;;;;5077845;28;20500;-58
2023/05/13 11:11:19;;;;;;;11.93;7.00;;;20.10;99.90;;;;;;5077764;28;20512;-58
2023/05/13 11:13:48;;;;;;;11.38;7.10;;;20.20;99.90;;;;;;5076427;28;20428;-58
2023/05/13 11:16:13;;;;;;;12.60;6.93;;;20.20;99.90;;;;;;5078428;28;20446;-57
2023/05/13 11:18:39;;;;;;;11.35;6.45;;;20.20;99.90;;;;;;5058485;28;20041;-58
2023/05/13 11:21:07;;;;;;;9.70;6.07;;;20.30;99.90;;;;;;5078543;28;20060;-58
2023/05/13 11:23:54;;;;;;;9.90;6.88;;;20.30;99.90;;;;;;5076683;28;20056;-58
2023/05/13 11:26:20;;;;;;;12.30;6.90;;;20.30;99.90;;;;;;5058537;28;20048;-58
2023/05/13 11:28:53;;;;;;;10.63;7.05;;;20.30;99.90;;;;;;5078182;28;20116;-58
2023/05/13 11:31:20;;;;;;;13.55;6.80;;;20.40;99.90;;;;;;5075942;28;20041;-58
2023/05/13 11:34:17;;;;;;;9.77;6.43;;;20.30;99.90;;;;;;5078372;28;20040;-58
2023/05/13 11:37:01;;;;;;;10.98;6.70;;;20.40;99.90;;;;;;5077021;28;20041;-58
2023/05/13 11:39:27;;;;;;;10.25;6.30;;;20.10;99.90;;;;;;5076438;28;20123;-58
2023/05/13 11:41:56;;;;;;;11.30;7.50;;;20.30;99.90;;;;;;5078138;28;20052;-58
2023/05/13 11:44:24;;;;;;;10.35;6.90;;;20.50;99.90;;;;;;5075905;28;20661;-58
2023/05/13 11:47:01;;;;;;;13.30;7.80;;;20.40;99.90;;;;;;5078228;28;20205;-58
2023/05/13 11:49:34;;;;;;;15.77;7.40;;;20.30;99.90;;;;;;5076840;28;20048;-58
2023/05/13 11:52:13;;;;;;;11.05;7.93;;;20.40;99.90;;;;;;5044554;28;20048;-58
2023/05/13 11:54:41;;;;;;;12.25;7.15;;;20.60;99.90;;;;;;5081873;28;20051;-58
2023/05/13 11:57:16;;;;;;;14.15;9.00;;;20.50;99.90;;;;;;5079717;28;20442;-58
2023/05/13 11:59:58;;;;;;;13.93;7.82;;;20.30;99.90;;;;;;5081539;28;20063;-58
2023/05/13 12:02:26;;;;;;;11.20;7.63;;;20.40;99.90;;;;;;5080581;28;20096;-57
2023/05/13 12:04:52;;;;;;;9.48;6.72;;;20.60;99.90;;;;;;5079949;28;20045;-57
2023/05/13 12:07:20;;;;;;;11.02;7.28;;;20.70;99.90;;;;;;5081324;28;20044;-58
2023/05/13 12:09:47;;;;;;;13.43;9.35;;;20.60;99.90;;;;;;5079463;28;20331;-58
2023/05/13 12:12:13;;;;;;;12.80;7.68;;;20.70;99.90;;;;;;5081840;28;20075;-58
2023/05/13 12:14:39;;;;;;;13.20;7.97;;;20.70;99.90;;;;;;5061577;28;20045;-57
2023/05/13 12:17:05;;;;;;;11.63;8.02;;;20.40;99.90;;;;;;5081387;28;20068;-58
2023/05/13 12:19:30;;;;;;;12.07;7.43;;;20.50;99.90;;;;;;5080408;28;20068;-58
2023/05/13 12:21:58;;;;;;;15.10;8.23;;;20.70;99.90;;;;;;5079938;28;20064;-58
2023/05/13 12:24:24;;;;;;;12.93;7.93;;;20.60;99.90;;;;;;5080680;28;20571;-58
2023/05/13 12:26:49;;;;;;;12.68;8.65;;;20.70;99.90;;;;;;5078918;28;20066;-57
2023/05/13 12:29:15;;;;;;;11.95;7.18;;;20.60;99.90;;;;;;5081198;28;20070;-57
2023/05/13 12:31:42;;;;;;;11.55;7.22;;;20.80;99.90;;;;;;5079200;28;20104;-58
2023/05/13 12:34:09;;;;;;;13.30;7.70;;;20.80;99.90;;;;;;5081229;28;20083;-58
2023/05/13 12:36:38;;;;;;;12.40;6.75;;;20.80;99.90;;;;;;5080066;28;20041;-58